sensor_id;sensor_type;location;lat;lon;timestamp;P1;durP1;ratioP1;P2;durP2;ratioP2
6499;SDS011;3283;52.330;9.772;2023-05-14T08:35:00;578.83;;;334.83;;
6499;SDS011;3283;52.330;9.772;2023-05-14T08:37:26;582.60;;;337.80;;
6499;SDS011;3283;52.330;9.772;2023-05-14T08:39:51;572.63;;;292.27;;
6499;SDS011;3283;52.330;9.772;2023-05-14T08:42:18;590.20;;;356.60;;
6499;SDS011;3283;52.330;9.772;2023-05-14T08:44:48;583.77;;;305.57;;
6499;SDS011;3283;52.330;9.772;2023-05-14T08:47:21;588.63;;;365.37;;
6499;SDS011;3283;52.330;9.772;2023-05-14T08:59:49;581.10;;;333.93;;
6499;SDS011;3283;52.330;9.772;2023-05-14T09:02:15;618.43;;;446.37;;
6499;SDS011;3283;52.330;9.772;2023-05-14T09:04:41;628.47;;;494.13;;
6499;SDS011;3283;52.330;9.772;2023-05-14T09:07:07;576.87;;;331.87;;
6499;SDS011;3283;52.330;9.772;2023-05-14T09:09:33;589.00;;;380.10;;
6499;SDS011;3283;52.330;9.772;2023-05-14T09:11:59;581.63;;;332.73;;
6499;SDS011;3283;52.330;9.772;2023-05-14T09:14:25;594.70;;;393.00;;
6499;SDS011;3283;52.330;9.772;2023-05-14T09:16:50;593.30;;;369.33;;
6499;SDS011;3283;52.330;9.772;2023-05-14T10:19:44;596.77;;;424.27;;
6499;SDS011;3283;52.330;9.772;2023-05-14T10:22:14;603.23;;;407.00;;
6499;SDS011;3283;52.330;9.772;2023-05-14T10:24:43;595.87;;;379.97;;
6499;SDS011;3283;52.330;9.772;2023-05-14T10:27:10;589.87;;;364.47;;
6499;SDS011;3283;52.330;9.772;2023-05-14T10:29:36;611.10;;;469.23;;
6499;SDS011;3283;52.330;9.772;2023-05-14T10:32:03;608.40;;;416.57;;
6499;SDS011;3283;52.330;9.772;2023-05-14T10:37:00;625.13;;;510.93;;
6499;SDS011;3283;52.330;9.772;2023-05-14T10:42:11;620.50;;;508.77;;
6499;SDS011;3283;52.330;9.772;2023-05-14T10:44:43;636.17;;;564.23;;
6499;SDS011;3283;52.330;9.772;2023-05-14T10:47:13;610.23;;;451.73;;
6499;SDS011;3283;52.330;9.772;2023-05-14T10:49:40;616.07;;;457.27;;
6499;SDS011;3283;52.330;9.772;2023-05-14T10:52:07;622.03;;;529.03;;
6499;SDS011;3283;52.330;9.772;2023-05-14T10:54:36;617.17;;;482.80;;
6499;SDS011;3283;52.330;9.772;2023-05-14T10:57:02;628.67;;;547.60;;
6499;SDS011;3283;52.330;9.772;2023-05-14T10:59:27;628.23;;;532.13;;
6499;SDS011;3283;52.330;9.772;2023-05-14T11:01:55;630.57;;;546.73;;
6499;SDS011;3283;52.330;9.772;2023-05-14T11:04:24;626.27;;;544.67;;
6499;SDS011;3283;52.330;9.772;2023-05-14T11:06:52;634.87;;;546.53;;
6499;SDS011;3283;52.330;9.772;2023-05-14T11:09:17;614.70;;;484.80;;
6499;SDS011;3283;52.330;9.772;2023-05-14T11:11:45;626.87;;;535.00;;
6499;SDS011;3283;52.330;9.772;2023-05-14T11:14:11;630.63;;;546.80;;
6499;SDS011;3283;52.330;9.772;2023-05-14T11:16:37;611.43;;;467.20;;
6499;SDS011;3283;52.330;9.772;2023-05-14T11:19:03;616.87;;;474.77;;
6499;SDS011;3283;52.330;9.772;2023-05-14T11:21:29;627.27;;;539.47;;
6499;SDS011;3283;52.330;9.772;2023-05-14T11:23:56;616.73;;;487.90;;
6499;SDS011;3283;52.330;9.772;2023-05-14T11:26:22;618.33;;;481.73;;
6499;SDS011;3283;52.330;9.772;2023-05-14T11:28:47;627.17;;;538.67;;
6499;SDS011;3283;52.330;9.772;2023-05-14T11:31:13;616.63;;;498.07;;
6499;SDS011;3283;52.330;9.772;2023-05-14T11:33:38;629.47;;;555.73;;
6499;SDS011;3283;52.330;9.772;2023-05-14T11:36:04;636.90;;;565.83;;
6499;SDS011;3283;52.330;9.772;2023-05-14T11:38:30;627.53;;;534.97;;
6499;SDS011;3283;52.330;9.772;2023-05-14T11:40:56;650.87;;;580.37;;
6499;SDS011;3283;52.330;9.772;2023-05-14T11:43:23;629.43;;;545.37;;
6499;SDS011;3283;52.330;9.772;2023-05-14T11:45:50;632.83;;;561.60;;
6499;SDS011;3283;52.330;9.772;2023-05-14T11:48:17;665.93;;;594.73;;
6499;SDS011;3283;52.330;9.772;2023-05-14T11:50:46;666.80;;;595.33;;
6499;SDS011;3283;52.330;9.772;2023-05-14T11:53:18;623.57;;;504.80;;
6499;SDS011;3283;52.330;9.772;2023-05-14T11:55:51;628.83;;;540.43;;
6499;SDS011;3283;52.330;9.772;2023-05-14T11:58:18;647.60;;;576.80;;
6499;SDS011;3283;52.330;9.772;2023-05-14T12:00:44;629.30;;;500.57;;
6499;SDS011;3283;52.330;9.772;2023-05-14T12:03:12;625.53;;;519.93;;
6499;SDS011;3283;52.330;9.772;2023-05-14T12:05:38;626.00;;;506.87;;
6499;SDS011;3283;52.330;9.772;2023-05-14T12:08:18;621.80;;;500.73;;
6499;SDS011;3283;52.330;9.772;2023-05-14T12:10:47;615.43;;;468.17;;
6499;SDS011;3283;52.330;9.772;2023-05-14T12:13:16;613.43;;;449.10;;
6499;SDS011;3283;52.330;9.772;2023-05-14T12:15:45;621.13;;;503.17;;
6499;SDS011;3283;52.330;9.772;2023-05-14T12:18:32;624.60;;;507.03;;
6499;SDS011;3283;52.330;9.772;2023-05-14T12:21:01;633.00;;;517.10;;
6499;SDS011;3283;52.330;9.772;2023-05-14T12:23:28;622.30;;;433.83;;
6499;SDS011;3283;52.330;9.772;2023-05-14T12:25:54;634.43;;;510.73;;
6499;SDS011;3283;52.330;9.772;2023-05-14T12:28:24;613.57;;;439.60;;
6499;SDS011;3283;52.330;9.772;2023-05-14T12:30:54;630.77;;;517.03;;
6499;SDS011;3283;52.330;9.772;2023-05-14T12:33:20;635.70;;;534.20;;
6499;SDS011;3283;52.330;9.772;2023-05-14T12:35:47;618.20;;;465.00;;
6499;SDS011;3283;52.330;9.772;2023-05-14T12:38:13;635.40;;;544.67;;
6499;SDS011;3283;52.330;9.772;2023-05-14T12:40:38;617.17;;;453.23;;
6499;SDS011;3283;52.330;9.772;2023-05-14T12:43:04;625.97;;;531.03;;
6499;SDS011;3283;52.330;9.772;2023-05-14T12:45:29;618.47;;;472.00;;
6499;SDS011;3283;52.330;9.772;2023-05-14T12:47:54;608.13;;;431.47;;
6499;SDS011;3283;52.330;9.772;2023-05-14T12:50:20;609.03;;;425.80;;
